sensor_id;sensor_type;location;lat;lon;timestamp;P1;durP1;ratioP1;P2;durP2;ratioP2
8435;SDS011;4255;48.730;9.156;2022-07-21T00:00:30;40.23;;;29.13;;
8435;SDS011;4255;48.730;9.156;2022-07-21T00:02:56;31.50;;;28.07;;
8435;SDS011;4255;48.730;9.156;2022-07-21T00:05:22;31.27;;;27.77;;
8435;SDS011;4255;48.730;9.156;2022-07-21T00:07:48;31.47;;;26.90;;
8435;SDS011;4255;48.730;9.156;2022-07-21T00:10:15;32.10;;;27.27;;
8435;SDS011;4255;48.730;9.156;2022-07-21T00:12:41;36.67;;;27.13;;
8435;SDS011;4255;48.730;9.156;2022-07-21T00:15:07;36.30;;;28.50;;
8435;SDS011;4255;48.730;9.156;2022-07-21T00:17:33;39.97;;;28.73;;
8435;SDS011;4255;48.730;9.156;2022-07-21T00:19:59;34.10;;;28.13;;
8435;SDS011;4255;48.730;9.156;2022-07-21T00:22:25;34.50;;;27.97;;
8435;SDS011;4255;48.730;9.156;2022-07-21T00:24:51;34.80;;;28.33;;
8435;SDS011;4255;48.730;9.156;2022-07-21T00:27:17;32.07;;;28.50;;
8435;SDS011;4255;48.730;9.156;2022-07-21T00:29:42;35.00;;;28.93;;
8435;SDS011;4255;48.730;9.156;2022-07-21T00:32:08;31.90;;;28.10;;
8435;SDS011;4255;48.730;9.156;2022-07-21T00:34:33;30.70;;;24.77;;
8435;SDS011;4255;48.730;9.156;2022-07-21T00:36:59;32.47;;;26.70;;
8435;SDS011;4255;48.730;9.156;2022-07-21T00:39:25;28.93;;;25.83;;
8435;SDS011;4255;48.730;9.156;2022-07-21T00:41:50;29.77;;;25.97;;
8435;SDS011;4255;48.730;9.156;2022-07-21T00:44:20;33.00;;;29.40;;
8435;SDS011;4255;48.730;9.156;2022-07-21T00:46:47;32.70;;;27.50;;
8435;SDS011;4255;48.730;9.156;2022-07-21T00:49:13;30.97;;;27.77;;
8435;SDS011;4255;48.730;9.156;2022-07-21T00:51:38;30.83;;;27.53;;
8435;SDS011;4255;48.730;9.156;2022-07-21T00:54:04;33.80;;;28.93;;
8435;SDS011;4255;48.730;9.156;2022-07-21T00:56:29;28.47;;;24.40;;
8435;SDS011;4255;48.730;9.156;2022-07-21T00:58:56;30.33;;;26.00;;
8435;SDS011;4255;48.730;9.156;2022-07-21T01:01:21;38.90;;;26.83;;
8435;SDS011;4255;48.730;9.156;2022-07-21T01:03:48;31.53;;;27.20;;
8435;SDS011;4255;48.730;9.156;2022-07-21T01:06:14;36.07;;;27.57;;
8435;SDS011;4255;48.730;9.156;2022-07-21T01:08:39;32.00;;;24.23;;
8435;SDS011;4255;48.730;9.156;2022-07-21T01:11:05;32.47;;;26.37;;
8435;SDS011;4255;48.730;9.156;2022-07-21T01:13:31;29.43;;;26.33;;
8435;SDS011;4255;48.730;9.156;2022-07-21T01:15:57;25.03;;;22.23;;
8435;SDS011;4255;48.730;9.156;2022-07-21T01:18:23;24.30;;;20.57;;
8435;SDS011;4255;48.730;9.156;2022-07-21T01:20:51;22.87;;;19.30;;
8435;SDS011;4255;48.730;9.156;2022-07-21T01:23:19;22.70;;;20.43;;
8435;SDS011;4255;48.730;9.156;2022-07-21T01:25:47;21.37;;;19.07;;
8435;SDS011;4255;48.730;9.156;2022-07-21T01:28:13;21.57;;;17.47;;
8435;SDS011;4255;48.730;9.156;2022-07-21T01:30:39;16.53;;;14.73;;
8435;SDS011;4255;48.730;9.156;2022-07-21T01:33:04;24.47;;;15.00;;
8435;SDS011;4255;48.730;9.156;2022-07-21T01:35:30;15.97;;;14.40;;
8435;SDS011;4255;48.730;9.156;2022-07-21T01:37:56;17.70;;;14.23;;
8435;SDS011;4255;48.730;9.156;2022-07-21T01:40:23;17.07;;;13.40;;
8435;SDS011;4255;48.730;9.156;2022-07-21T01:43:08;14.57;;;13.03;;
8435;SDS011;4255;48.730;9.156;2022-07-21T01:45:34;16.40;;;14.80;;
8435;SDS011;4255;48.730;9.156;2022-07-21T01:47:59;18.00;;;15.00;;
8435;SDS011;4255;48.730;9.156;2022-07-21T01:50:25;17.27;;;15.57;;
8435;SDS011;4255;48.730;9.156;2022-07-21T01:52:55;17.60;;;15.43;;
8435;SDS011;4255;48.730;9.156;2022-07-21T01:55:23;20.60;;;15.60;;
8435;SDS011;4255;48.730;9.156;2022-07-21T01:57:49;18.50;;;14.93;;
8435;SDS011;4255;48.730;9.156;2022-07-21T02:00:15;20.70;;;15.20;;
8435;SDS011;4255;48.730;9.156;2022-07-21T02:02:41;20.40;;;15.60;;
8435;SDS011;4255;48.730;9.156;2022-07-21T02:05:08;18.27;;;15.27;;
8435;SDS011;4255;48.730;9.156;2022-07-21T02:07:33;20.87;;;14.40;;
8435;SDS011;4255;48.730;9.156;2022-07-21T02:09:59;21.10;;;14.93;;
8435;SDS011;4255;48.730;9.156;2022-07-21T02:12:25;17.40;;;15.70;;
8435;SDS011;4255;48.730;9.156;2022-07-21T02:14:51;16.50;;;13.63;;
8435;SDS011;4255;48.730;9.156;2022-07-21T02:17:16;15.83;;;13.90;;
8435;SDS011;4255;48.730;9.156;2022-07-21T02:19:42;15.70;;;14.10;;
8435;SDS011;4255;48.730;9.156;2022-07-21T02:22:08;17.47;;;14.10;;
8435;SDS011;4255;48.730;9.156;2022-07-21T02:24:34;15.37;;;13.77;;
8435;SDS011;4255;48.730;9.156;2022-07-21T02:27:00;15.87;;;14.17;;
8435;SDS011;4255;48.730;9.156;2022-07-21T02:29:26;16.07;;;14.37;;
8435;SDS011;4255;48.730;9.156;2022-07-21T02:31:52;16.57;;;14.33;;
8435;SDS011;4255;48.730;9.156;2022-07-21T02:34:17;20.03;;;15.30;;
8435;SDS011;4255;48.730;9.156;2022-07-21T02:36:43;14.20;;;12.80;;
8435;SDS011;4255;48.730;9.156;2022-07-21T02:39:09;16.90;;;14.80;;
8435;SDS011;4255;48.730;9.156;2022-07-21T02:41:35;15.33;;;13.73;;
8435;SDS011;4255;48.730;9.156;2022-07-21T02:44:01;20.53;;;14.00;;
8435;SDS011;4255;48.730;9.156;2022-07-21T02:46:27;16.77;;;13.70;;
8435;SDS011;4255;48.730;9.156;2022-07-21T02:48:52;16.00;;;14.40;;
8435;SDS011;4255;48.730;9.156;2022-07-21T02:51:18;15.70;;;14.10;;
8435;SDS011;4255;48.730;9.156;2022-07-21T02:53:44;16.90;;;13.77;;
8435;SDS011;4255;48.730;9.156;2022-07-21T02:56:09;16.10;;;14.40;;
8435;SDS011;4255;48.730;9.156;2022-07-21T02:58:35;16.60;;;13.70;;
8435;SDS011;4255;48.730;9.156;2022-07-21T03:01:01;15.00;;;13.27;;
8435;SDS011;4255;48.730;9.156;2022-07-21T03:03:30;12.90;;;11.70;;
8435;SDS011;4255;48.730;9.156;2022-07-21T03:06:02;12.87;;;11.57;;
8435;SDS011;4255;48.730;9.156;2022-07-21T03:08:28;13.33;;;11.10;;
8435;SDS011;4255;48.730;9.156;2022-07-21T03:10:54;13.20;;;11.17;;
8435;SDS011;4255;48.730;9.156;2022-07-21T03:13:20;11.30;;;10.27;;
8435;SDS011;4255;48.730;9.156;2022-07-21T03:15:46;14.10;;;12.70;;
8435;SDS011;4255;48.730;9.156;2022-07-21T03:18:12;14.13;;;12.73;;
8435;SDS011;4255;48.730;9.156;2022-07-21T03:20:38;13.23;;;11.83;;
8435;SDS011;4255;48.730;9.156;2022-07-21T03:23:05;18.47;;;14.03;;
8435;SDS011;4255;48.730;9.156;2022-07-21T03:25:31;12.13;;;10.93;;
8435;SDS011;4255;48.730;9.156;2022-07-21T03:27:57;14.03;;;12.53;;
8435;SDS011;4255;48.730;9.156;2022-07-21T03:30:23;14.17;;;12.83;;
8435;SDS011;4255;48.730;9.156;2022-07-21T03:32:49;13.80;;;10.73;;
8435;SDS011;4255;48.730;9.156;2022-07-21T03:35:15;16.13;;;12.33;;
8435;SDS011;4255;48.730;9.156;2022-07-21T03:37:45;15.67;;;14.10;;
8435;SDS011;4255;48.730;9.156;2022-07-21T03:40:14;11.97;;;10.77;;
8435;SDS011;4255;48.730;9.156;2022-07-21T03:42:41;11.67;;;10.43;;
8435;SDS011;4255;48.730;9.156;2022-07-21T03:45:07;13.27;;;12.07;;
8435;SDS011;4255;48.730;9.156;2022-07-21T03:47:34;14.67;;;13.17;;
8435;SDS011;4255;48.730;9.156;2022-07-21T03:50:00;15.00;;;13.60;;
8435;SDS011;4255;48.730;9.156;2022-07-21T03:52:26;14.00;;;12.70;;
8435;SDS011;4255;48.730;9.156;2022-07-21T03:54:52;12.77;;;11.47;;
8435;SDS011;4255;48.730;9.156;2022-07-21T03:57:33;15.97;;;13.07;;
8435;SDS011;4255;48.730;9.156;2022-07-21T04:00:07;14.70;;;13.20;;
8435;SDS011;4255;48.730;9.156;2022-07-21T04:02:34;12.93;;;11.43;;
8435;SDS011;4255;48.730;9.156;2022-07-21T04:05:00;16.13;;;12.13;;
8435;SDS011;4255;48.730;9.156;2022-07-21T04:07:27;14.03;;;12.37;;
8435;SDS011;4255;48.730;9.156;2022-07-21T04:09:53;15.13;;;13.60;;
8435;SDS011;4255;48.730;9.156;2022-07-21T04:12:18;14.70;;;12.67;;
8435;SDS011;4255;48.730;9.156;2022-07-21T04:14:44;14.17;;;12.67;;
8435;SDS011;4255;48.730;9.156;2022-07-21T04:17:09;15.60;;;14.07;;
8435;SDS011;4255;48.730;9.156;2022-07-21T04:19:35;13.40;;;12.10;;
8435;SDS011;4255;48.730;9.156;2022-07-21T04:22:00;14.30;;;12.80;;
8435;SDS011;4255;48.730;9.156;2022-07-21T04:24:26;14.53;;;13.17;;
8435;SDS011;4255;48.730;9.156;2022-07-21T04:26:52;22.50;;;12.77;;
8435;SDS011;4255;48.730;9.156;2022-07-21T04:29:17;14.53;;;13.03;;
8435;SDS011;4255;48.730;9.156;2022-07-21T04:31:43;15.20;;;12.60;;
8435;SDS011;4255;48.730;9.156;2022-07-21T04:34:09;14.70;;;13.07;;
8435;SDS011;4255;48.730;9.156;2022-07-21T04:36:34;15.03;;;13.37;;
8435;SDS011;4255;48.730;9.156;2022-07-21T04:39:00;13.30;;;11.93;;
8435;SDS011;4255;48.730;9.156;2022-07-21T04:41:25;15.67;;;13.10;;
8435;SDS011;4255;48.730;9.156;2022-07-21T04:43:51;44.00;;;15.97;;
8435;SDS011;4255;48.730;9.156;2022-07-21T04:46:16;14.27;;;12.77;;
8435;SDS011;4255;48.730;9.156;2022-07-21T04:48:42;17.80;;;13.17;;
8435;SDS011;4255;48.730;9.156;2022-07-21T04:51:08;19.23;;;13.20;;
8435;SDS011;4255;48.730;9.156;2022-07-21T04:53:33;16.00;;;13.73;;
8435;SDS011;4255;48.730;9.156;2022-07-21T04:55:59;13.83;;;12.53;;
8435;SDS011;4255;48.730;9.156;2022-07-21T04:58:24;15.00;;;12.67;;
8435;SDS011;4255;48.730;9.156;2022-07-21T05:00:50;16.47;;;13.20;;
8435;SDS011;4255;48.730;9.156;2022-07-21T05:03:16;17.60;;;13.37;;
8435;SDS011;4255;48.730;9.156;2022-07-21T05:05:41;20.07;;;13.70;;
8435;SDS011;4255;48.730;9.156;2022-07-21T05:08:07;18.90;;;13.57;;
8435;SDS011;4255;48.730;9.156;2022-07-21T05:10:32;17.07;;;15.27;;
8435;SDS011;4255;48.730;9.156;2022-07-21T05:12:58;14.83;;;13.33;;
8435;SDS011;4255;48.730;9.156;2022-07-21T05:15:24;14.23;;;12.63;;
8435;SDS011;4255;48.730;9.156;2022-07-21T05:17:49;14.90;;;12.93;;
8435;SDS011;4255;48.730;9.156;2022-07-21T05:20:15;13.90;;;12.47;;
8435;SDS011;4255;48.730;9.156;2022-07-21T05:22:41;17.63;;;13.77;;
8435;SDS011;4255;48.730;9.156;2022-07-21T05:25:06;13.43;;;11.97;;
8435;SDS011;4255;48.730;9.156;2022-07-21T05:27:33;13.13;;;11.87;;
8435;SDS011;4255;48.730;9.156;2022-07-21T05:29:59;14.97;;;13.43;;
8435;SDS011;4255;48.730;9.156;2022-07-21T05:32:24;16.27;;;13.10;;
8435;SDS011;4255;48.730;9.156;2022-07-21T05:34:50;14.50;;;12.37;;
8435;SDS011;4255;48.730;9.156;2022-07-21T05:37:16;16.27;;;12.50;;
8435;SDS011;4255;48.730;9.156;2022-07-21T05:39:41;14.60;;;13.10;;
8435;SDS011;4255;48.730;9.156;2022-07-21T05:42:07;13.80;;;12.27;;
8435;SDS011;4255;48.730;9.156;2022-07-21T05:44:32;13.87;;;12.33;;
8435;SDS011;4255;48.730;9.156;2022-07-21T05:46:58;14.30;;;12.80;;
8435;SDS011;4255;48.730;9.156;2022-07-21T05:49:24;14.53;;;12.73;;
8435;SDS011;4255;48.730;9.156;2022-07-21T05:51:49;15.80;;;12.67;;
8435;SDS011;4255;48.730;9.156;2022-07-21T05:54:15;14.47;;;11.33;;
8435;SDS011;4255;48.730;9.156;2022-07-21T05:56:40;13.27;;;11.97;;
8435;SDS011;4255;48.730;9.156;2022-07-21T05:59:06;12.90;;;11.60;;
8435;SDS011;4255;48.730;9.156;2022-07-21T06:01:32;17.70;;;10.40;;
8435;SDS011;4255;48.730;9.156;2022-07-21T06:03:58;12.43;;;11.20;;
8435;SDS011;4255;48.730;9.156;2022-07-21T06:06:23;14.53;;;12.73;;
8435;SDS011;4255;48.730;9.156;2022-07-21T06:08:49;11.37;;;10.27;;
8435;SDS011;4255;48.730;9.156;2022-07-21T06:11:16;12.47;;;11.20;;
8435;SDS011;4255;48.730;9.156;2022-07-21T06:13:43;14.40;;;11.40;;
8435;SDS011;4255;48.730;9.156;2022-07-21T06:16:09;12.40;;;11.10;;
8435;SDS011;4255;48.730;9.156;2022-07-21T06:18:35;14.07;;;12.70;;
8435;SDS011;4255;48.730;9.156;2022-07-21T06:21:01;14.30;;;12.97;;
8435;SDS011;4255;48.730;9.156;2022-07-21T06:23:27;15.23;;;11.93;;
8435;SDS011;4255;48.730;9.156;2022-07-21T06:25:53;13.50;;;12.23;;
8435;SDS011;4255;48.730;9.156;2022-07-21T06:28:19;13.90;;;12.50;;
8435;SDS011;4255;48.730;9.156;2022-07-21T06:30:45;13.73;;;12.37;;
8435;SDS011;4255;48.730;9.156;2022-07-21T06:33:11;13.07;;;11.80;;
8435;SDS011;4255;48.730;9.156;2022-07-21T06:35:37;11.70;;;10.70;;
8435;SDS011;4255;48.730;9.156;2022-07-21T06:38:03;13.60;;;12.40;;
8435;SDS011;4255;48.730;9.156;2022-07-21T06:40:29;11.80;;;10.70;;
8435;SDS011;4255;48.730;9.156;2022-07-21T06:42:55;13.17;;;11.40;;
8435;SDS011;4255;48.730;9.156;2022-07-21T06:45:21;13.17;;;11.77;;
8435;SDS011;4255;48.730;9.156;2022-07-21T06:47:48;12.57;;;11.33;;
8435;SDS011;4255;48.730;9.156;2022-07-21T06:50:14;13.77;;;10.80;;
8435;SDS011;4255;48.730;9.156;2022-07-21T06:52:40;12.00;;;10.80;;
8435;SDS011;4255;48.730;9.156;2022-07-21T06:55:06;11.83;;;10.63;;
8435;SDS011;4255;48.730;9.156;2022-07-21T06:57:36;11.90;;;10.80;;
8435;SDS011;4255;48.730;9.156;2022-07-21T07:00:06;14.80;;;10.80;;
8435;SDS011;4255;48.730;9.156;2022-07-21T07:02:33;11.27;;;10.03;;
8435;SDS011;4255;48.730;9.156;2022-07-21T07:04:59;10.03;;;9.13;;
8435;SDS011;4255;48.730;9.156;2022-07-21T07:07:24;11.30;;;10.20;;
8435;SDS011;4255;48.730;9.156;2022-07-21T07:09:50;11.30;;;9.40;;
8435;SDS011;4255;48.730;9.156;2022-07-21T07:12:15;11.63;;;9.80;;
8435;SDS011;4255;48.730;9.156;2022-07-21T07:14:41;11.37;;;10.30;;
8435;SDS011;4255;48.730;9.156;2022-07-21T07:17:06;11.83;;;10.60;;
8435;SDS011;4255;48.730;9.156;2022-07-21T07:19:32;10.60;;;9.50;;
8435;SDS011;4255;48.730;9.156;2022-07-21T07:21:58;13.50;;;10.73;;
8435;SDS011;4255;48.730;9.156;2022-07-21T07:24:24;11.40;;;10.23;;
8435;SDS011;4255;48.730;9.156;2022-07-21T07:26:49;12.37;;;11.17;;
8435;SDS011;4255;48.730;9.156;2022-07-21T07:29:15;12.77;;;10.27;;
8435;SDS011;4255;48.730;9.156;2022-07-21T07:31:41;11.13;;;10.03;;
8435;SDS011;4255;48.730;9.156;2022-07-21T07:34:07;13.10;;;10.17;;
8435;SDS011;4255;48.730;9.156;2022-07-21T07:36:34;10.10;;;9.13;;
8435;SDS011;4255;48.730;9.156;2022-07-21T07:39:01;13.07;;;9.73;;
8435;SDS011;4255;48.730;9.156;2022-07-21T07:41:28;9.87;;;8.93;;
8435;SDS011;4255;48.730;9.156;2022-07-21T07:43:54;11.43;;;9.90;;
8435;SDS011;4255;48.730;9.156;2022-07-21T07:46:20;18.43;;;10.50;;
8435;SDS011;4255;48.730;9.156;2022-07-21T07:48:45;13.97;;;10.43;;
8435;SDS011;4255;48.730;9.156;2022-07-21T07:51:12;11.27;;;9.93;;
8435;SDS011;4255;48.730;9.156;2022-07-21T07:53:38;11.90;;;10.80;;
8435;SDS011;4255;48.730;9.156;2022-07-21T07:56:05;12.13;;;9.90;;
8435;SDS011;4255;48.730;9.156;2022-07-21T07:58:31;11.23;;;9.17;;
8435;SDS011;4255;48.730;9.156;2022-07-21T08:00:57;15.70;;;9.40;;
8435;SDS011;4255;48.730;9.156;2022-07-21T08:03:24;15.63;;;8.30;;
8435;SDS011;4255;48.730;9.156;2022-07-21T08:05:51;10.17;;;8.90;;
8435;SDS011;4255;48.730;9.156;2022-07-21T08:08:17;9.83;;;8.83;;
8435;SDS011;4255;48.730;9.156;2022-07-21T08:10:44;9.90;;;9.00;;
8435;SDS011;4255;48.730;9.156;2022-07-21T08:13:15;10.70;;;8.47;;
8435;SDS011;4255;48.730;9.156;2022-07-21T08:15:42;10.70;;;8.73;;
8435;SDS011;4255;48.730;9.156;2022-07-21T08:18:09;8.90;;;7.87;;
8435;SDS011;4255;48.730;9.156;2022-07-21T08:20:35;15.87;;;10.30;;
8435;SDS011;4255;48.730;9.156;2022-07-21T08:23:01;9.57;;;8.67;;
8435;SDS011;4255;48.730;9.156;2022-07-21T08:25:27;9.30;;;8.20;;
8435;SDS011;4255;48.730;9.156;2022-07-21T08:27:53;9.00;;;8.17;;
8435;SDS011;4255;48.730;9.156;2022-07-21T08:30:19;9.27;;;8.47;;
8435;SDS011;4255;48.730;9.156;2022-07-21T08:32:45;8.50;;;7.60;;
8435;SDS011;4255;48.730;9.156;2022-07-21T08:35:10;9.40;;;7.80;;
8435;SDS011;4255;48.730;9.156;2022-07-21T08:37:37;9.80;;;7.90;;
8435;SDS011;4255;48.730;9.156;2022-07-21T08:40:05;9.53;;;8.20;;
8435;SDS011;4255;48.730;9.156;2022-07-21T08:42:32;9.30;;;8.03;;
8435;SDS011;4255;48.730;9.156;2022-07-21T08:44:58;9.27;;;8.50;;
8435;SDS011;4255;48.730;9.156;2022-07-21T08:47:24;9.70;;;8.57;;
8435;SDS011;4255;48.730;9.156;2022-07-21T08:49:50;8.10;;;7.40;;
8435;SDS011;4255;48.730;9.156;2022-07-21T08:52:17;8.40;;;7.60;;
8435;SDS011;4255;48.730;9.156;2022-07-21T08:54:43;8.77;;;7.30;;
8435;SDS011;4255;48.730;9.156;2022-07-21T08:57:09;14.23;;;8.50;;
8435;SDS011;4255;48.730;9.156;2022-07-21T08:59:35;8.60;;;7.90;;
8435;SDS011;4255;48.730;9.156;2022-07-21T09:02:01;8.10;;;7.40;;
8435;SDS011;4255;48.730;9.156;2022-07-21T09:04:28;7.63;;;6.93;;
8435;SDS011;4255;48.730;9.156;2022-07-21T09:06:59;8.03;;;7.23;;
8435;SDS011;4255;48.730;9.156;2022-07-21T09:09:27;9.47;;;8.10;;
8435;SDS011;4255;48.730;9.156;2022-07-21T09:11:54;8.10;;;7.50;;
8435;SDS011;4255;48.730;9.156;2022-07-21T09:14:21;8.40;;;7.60;;
8435;SDS011;4255;48.730;9.156;2022-07-21T09:16:52;8.77;;;7.93;;
8435;SDS011;4255;48.730;9.156;2022-07-21T09:19:29;8.27;;;7.47;;
8435;SDS011;4255;48.730;9.156;2022-07-21T09:21:59;8.47;;;7.83;;
8435;SDS011;4255;48.730;9.156;2022-07-21T09:24:27;8.53;;;7.50;;
8435;SDS011;4255;48.730;9.156;2022-07-21T09:34:46;9.90;;;7.30;;
8435;SDS011;4255;48.730;9.156;2022-07-21T09:37:22;7.80;;;7.10;;
8435;SDS011;4255;48.730;9.156;2022-07-21T09:39:52;7.60;;;6.90;;
8435;SDS011;4255;48.730;9.156;2022-07-21T09:42:23;8.30;;;7.47;;
8435;SDS011;4255;48.730;9.156;2022-07-21T09:44:55;9.20;;;6.83;;
8435;SDS011;4255;48.730;9.156;2022-07-21T09:47:23;7.83;;;7.13;;
8435;SDS011;4255;48.730;9.156;2022-07-21T09:49:51;8.63;;;6.57;;
8435;SDS011;4255;48.730;9.156;2022-07-21T09:55:06;7.90;;;7.30;;
8435;SDS011;4255;48.730;9.156;2022-07-21T09:57:34;7.13;;;6.43;;
8435;SDS011;4255;48.730;9.156;2022-07-21T09:59:59;7.27;;;6.67;;
8435;SDS011;4255;48.730;9.156;2022-07-21T10:02:26;9.77;;;6.80;;
8435;SDS011;4255;48.730;9.156;2022-07-21T10:04:56;7.60;;;6.90;;
8435;SDS011;4255;48.730;9.156;2022-07-21T10:07:23;7.17;;;6.57;;
8435;SDS011;4255;48.730;9.156;2022-07-21T10:09:49;7.10;;;6.40;;
8435;SDS011;4255;48.730;9.156;2022-07-21T10:12:16;7.33;;;6.73;;
8435;SDS011;4255;48.730;9.156;2022-07-21T10:14:42;6.20;;;5.63;;
8435;SDS011;4255;48.730;9.156;2022-07-21T10:17:09;6.90;;;6.23;;
8435;SDS011;4255;48.730;9.156;2022-07-21T10:19:37;6.43;;;5.57;;
8435;SDS011;4255;48.730;9.156;2022-07-21T10:25:02;5.50;;;5.13;;
8435;SDS011;4255;48.730;9.156;2022-07-21T10:27:28;6.10;;;5.60;;
8435;SDS011;4255;48.730;9.156;2022-07-21T10:29:59;6.53;;;5.93;;
8435;SDS011;4255;48.730;9.156;2022-07-21T10:32:33;6.30;;;5.70;;
8435;SDS011;4255;48.730;9.156;2022-07-21T10:35:02;5.70;;;5.20;;
8435;SDS011;4255;48.730;9.156;2022-07-21T10:37:48;5.60;;;4.90;;
8435;SDS011;4255;48.730;9.156;2022-07-21T10:43:35;5.20;;;4.70;;
8435;SDS011;4255;48.730;9.156;2022-07-21T10:45:35;5.60;;;5.20;;
8435;SDS011;4255;48.730;9.156;2022-07-21T10:48:03;5.47;;;5.00;;
8435;SDS011;4255;48.730;9.156;2022-07-21T10:50:40;8.00;;;5.50;;
8435;SDS011;4255;48.730;9.156;2022-07-21T10:55:45;5.90;;;5.00;;
8435;SDS011;4255;48.730;9.156;2022-07-21T11:00:54;5.87;;;5.43;;
8435;SDS011;4255;48.730;9.156;2022-07-21T11:09:04;11.03;;;5.50;;
8435;SDS011;4255;48.730;9.156;2022-07-21T11:11:36;5.70;;;5.20;;
8435;SDS011;4255;48.730;9.156;2022-07-21T11:14:06;5.93;;;4.93;;
8435;SDS011;4255;48.730;9.156;2022-07-21T11:24:34;5.50;;;5.00;;
8435;SDS011;4255;48.730;9.156;2022-07-21T11:29:37;5.53;;;5.07;;
8435;SDS011;4255;48.730;9.156;2022-07-21T11:32:04;5.43;;;5.10;;
8435;SDS011;4255;48.730;9.156;2022-07-21T11:34:38;5.87;;;5.47;;
8435;SDS011;4255;48.730;9.156;2022-07-21T11:37:07;7.90;;;5.43;;
8435;SDS011;4255;48.730;9.156;2022-07-21T11:39:34;6.23;;;5.57;;
8435;SDS011;4255;48.730;9.156;2022-07-21T11:42:11;4.97;;;4.57;;
8435;SDS011;4255;48.730;9.156;2022-07-21T11:44:39;5.43;;;4.93;;
8435;SDS011;4255;48.730;9.156;2022-07-21T11:47:06;5.40;;;4.90;;
8435;SDS011;4255;48.730;9.156;2022-07-21T11:49:34;5.53;;;4.90;;
8435;SDS011;4255;48.730;9.156;2022-07-21T11:52:04;5.40;;;5.00;;
8435;SDS011;4255;48.730;9.156;2022-07-21T11:54:36;5.87;;;5.30;;
8435;SDS011;4255;48.730;9.156;2022-07-21T11:57:08;5.30;;;5.00;;
8435;SDS011;4255;48.730;9.156;2022-07-21T11:59:34;5.67;;;5.17;;
8435;SDS011;4255;48.730;9.156;2022-07-21T12:02:07;5.47;;;5.07;;
8435;SDS011;4255;48.730;9.156;2022-07-21T12:04:44;5.43;;;5.00;;
8435;SDS011;4255;48.730;9.156;2022-07-21T12:09:50;5.17;;;4.77;;
8435;SDS011;4255;48.730;9.156;2022-07-21T12:15:12;5.77;;;5.27;;
8435;SDS011;4255;48.730;9.156;2022-07-21T12:17:55;6.20;;;5.63;;
8435;SDS011;4255;48.730;9.156;2022-07-21T12:20:31;5.73;;;4.93;;
8435;SDS011;4255;48.730;9.156;2022-07-21T12:23:01;5.70;;;5.27;;
8435;SDS011;4255;48.730;9.156;2022-07-21T12:25:42;5.80;;;4.90;;
8435;SDS011;4255;48.730;9.156;2022-07-21T12:28:07;5.30;;;4.90;;
8435;SDS011;4255;48.730;9.156;2022-07-21T12:30:45;5.77;;;5.37;;
8435;SDS011;4255;48.730;9.156;2022-07-21T12:33:13;5.70;;;5.20;;
8435;SDS011;4255;48.730;9.156;2022-07-21T12:35:42;5.30;;;4.90;;
8435;SDS011;4255;48.730;9.156;2022-07-21T12:38:16;5.63;;;5.23;;
8435;SDS011;4255;48.730;9.156;2022-07-21T12:40:48;5.20;;;4.70;;
8435;SDS011;4255;48.730;9.156;2022-07-21T12:43:21;5.93;;;5.50;;
8435;SDS011;4255;48.730;9.156;2022-07-21T12:45:51;5.80;;;5.30;;
8435;SDS011;4255;48.730;9.156;2022-07-21T12:48:23;6.47;;;6.00;;
8435;SDS011;4255;48.730;9.156;2022-07-21T12:50:57;6.23;;;5.67;;
8435;SDS011;4255;48.730;9.156;2022-07-21T12:53:24;6.30;;;5.70;;
8435;SDS011;4255;48.730;9.156;2022-07-21T12:55:50;6.30;;;5.80;;
8435;SDS011;4255;48.730;9.156;2022-07-21T12:58:15;5.67;;;5.27;;
8435;SDS011;4255;48.730;9.156;2022-07-21T13:00:41;6.43;;;5.83;;
8435;SDS011;4255;48.730;9.156;2022-07-21T13:03:06;5.93;;;5.43;;
8435;SDS011;4255;48.730;9.156;2022-07-21T13:05:32;5.93;;;5.40;;
8435;SDS011;4255;48.730;9.156;2022-07-21T13:07:58;12.60;;;7.10;;
8435;SDS011;4255;48.730;9.156;2022-07-21T13:10:23;7.27;;;6.47;;
8435;SDS011;4255;48.730;9.156;2022-07-21T13:12:49;5.83;;;5.33;;
8435;SDS011;4255;48.730;9.156;2022-07-21T13:15:15;6.20;;;5.70;;
8435;SDS011;4255;48.730;9.156;2022-07-21T13:17:42;8.33;;;5.73;;
8435;SDS011;4255;48.730;9.156;2022-07-21T13:20:08;6.10;;;5.60;;
8435;SDS011;4255;48.730;9.156;2022-07-21T13:22:34;8.33;;;7.63;;
8435;SDS011;4255;48.730;9.156;2022-07-21T13:25:00;6.20;;;5.77;;
8435;SDS011;4255;48.730;9.156;2022-07-21T13:27:26;9.50;;;6.70;;
8435;SDS011;4255;48.730;9.156;2022-07-21T13:29:51;7.63;;;6.67;;
8435;SDS011;4255;48.730;9.156;2022-07-21T13:32:17;7.30;;;6.63;;
8435;SDS011;4255;48.730;9.156;2022-07-21T13:34:42;7.70;;;7.03;;
8435;SDS011;4255;48.730;9.156;2022-07-21T13:37:08;7.20;;;6.50;;
8435;SDS011;4255;48.730;9.156;2022-07-21T13:39:37;7.47;;;6.80;;
8435;SDS011;4255;48.730;9.156;2022-07-21T13:42:04;11.20;;;7.50;;
8435;SDS011;4255;48.730;9.156;2022-07-21T13:44:31;7.47;;;6.80;;
8435;SDS011;4255;48.730;9.156;2022-07-21T13:46:57;9.53;;;7.30;;
8435;SDS011;4255;48.730;9.156;2022-07-21T13:49:23;8.40;;;7.67;;
8435;SDS011;4255;48.730;9.156;2022-07-21T13:51:49;7.80;;;7.10;;
8435;SDS011;4255;48.730;9.156;2022-07-21T13:54:14;6.87;;;6.30;;
8435;SDS011;4255;48.730;9.156;2022-07-21T13:56:40;8.30;;;7.60;;
8435;SDS011;4255;48.730;9.156;2022-07-21T13:59:05;7.33;;;6.60;;
8435;SDS011;4255;48.730;9.156;2022-07-21T14:01:31;6.93;;;6.33;;
8435;SDS011;4255;48.730;9.156;2022-07-21T14:03:57;7.87;;;7.10;;
8435;SDS011;4255;48.730;9.156;2022-07-21T14:06:23;7.00;;;6.50;;
8435;SDS011;4255;48.730;9.156;2022-07-21T14:08:48;6.47;;;5.87;;
8435;SDS011;4255;48.730;9.156;2022-07-21T14:11:14;7.27;;;6.67;;
8435;SDS011;4255;48.730;9.156;2022-07-21T14:13:40;7.13;;;6.43;;
8435;SDS011;4255;48.730;9.156;2022-07-21T14:16:06;6.90;;;6.20;;
8435;SDS011;4255;48.730;9.156;2022-07-21T14:18:32;6.67;;;6.07;;
8435;SDS011;4255;48.730;9.156;2022-07-21T14:20:58;7.23;;;6.63;;
8435;SDS011;4255;48.730;9.156;2022-07-21T14:23:24;6.60;;;6.00;;
8435;SDS011;4255;48.730;9.156;2022-07-21T14:25:51;6.50;;;5.90;;
8435;SDS011;4255;48.730;9.156;2022-07-21T14:28:18;5.83;;;5.33;;
8435;SDS011;4255;48.730;9.156;2022-07-21T14:30:44;6.90;;;6.30;;
8435;SDS011;4255;48.730;9.156;2022-07-21T14:33:10;7.80;;;6.47;;
8435;SDS011;4255;48.730;9.156;2022-07-21T14:35:35;7.87;;;6.53;;
8435;SDS011;4255;48.730;9.156;2022-07-21T14:38:02;7.07;;;6.37;;
8435;SDS011;4255;48.730;9.156;2022-07-21T14:40:28;8.07;;;7.23;;
8435;SDS011;4255;48.730;9.156;2022-07-21T14:42:53;11.83;;;6.80;;
8435;SDS011;4255;48.730;9.156;2022-07-21T14:45:21;6.03;;;5.53;;
8435;SDS011;4255;48.730;9.156;2022-07-21T14:47:47;9.13;;;6.87;;
8435;SDS011;4255;48.730;9.156;2022-07-21T14:50:14;7.97;;;6.83;;
8435;SDS011;4255;48.730;9.156;2022-07-21T14:52:40;6.53;;;6.13;;
8435;SDS011;4255;48.730;9.156;2022-07-21T14:55:07;7.03;;;6.40;;
8435;SDS011;4255;48.730;9.156;2022-07-21T14:57:33;8.37;;;7.67;;
8435;SDS011;4255;48.730;9.156;2022-07-21T14:59:59;7.27;;;6.60;;
8435;SDS011;4255;48.730;9.156;2022-07-21T15:02:25;6.90;;;6.40;;
8435;SDS011;4255;48.730;9.156;2022-07-21T15:04:51;6.20;;;5.73;;
8435;SDS011;4255;48.730;9.156;2022-07-21T15:07:17;6.67;;;6.17;;
8435;SDS011;4255;48.730;9.156;2022-07-21T15:09:42;6.63;;;6.07;;
8435;SDS011;4255;48.730;9.156;2022-07-21T15:12:09;7.30;;;6.30;;
8435;SDS011;4255;48.730;9.156;2022-07-21T15:14:35;6.67;;;5.83;;
8435;SDS011;4255;48.730;9.156;2022-07-21T15:17:01;6.03;;;5.63;;
8435;SDS011;4255;48.730;9.156;2022-07-21T15:19:27;6.50;;;6.00;;
8435;SDS011;4255;48.730;9.156;2022-07-21T15:21:53;6.37;;;5.87;;
8435;SDS011;4255;48.730;9.156;2022-07-21T15:24:19;6.87;;;6.27;;
8435;SDS011;4255;48.730;9.156;2022-07-21T15:26:44;6.97;;;6.30;;
8435;SDS011;4255;48.730;9.156;2022-07-21T15:29:10;6.63;;;6.03;;
8435;SDS011;4255;48.730;9.156;2022-07-21T15:31:36;8.80;;;6.83;;
8435;SDS011;4255;48.730;9.156;2022-07-21T15:34:02;6.90;;;6.13;;
8435;SDS011;4255;48.730;9.156;2022-07-21T15:36:28;5.90;;;5.43;;
8435;SDS011;4255;48.730;9.156;2022-07-21T15:38:55;6.37;;;5.77;;
8435;SDS011;4255;48.730;9.156;2022-07-21T15:41:24;5.97;;;5.50;;